Time;durP1;ratioP1;P1;durP2;ratioP2;P2;SDS_P1;SDS_P2;PMS_P1;PMS_P2;Temp;Humidity;BMP_temperature;BMP_pressure;BME280_temperature;BME280_humidity;BME280_pressure;Samples;Min_cycle;Max_cycle;Signal;HPM_P1;HPM_P2
2023/10/22 00:02:09;;;;;;;5.38;1.00;;;13.70;99.90;;;;;;5032735;28;20474;-57
2023/10/22 00:04:34;;;;;;;3.53;0.77;;;13.70;99.90;;;;;;5050197;28;20048;-56
2023/10/22 00:07:00;;;;;;;3.63;0.80;;;13.70;99.90;;;;;;5051009;28;20025;-56
2023/10/22 00:09:26;;;;;;;5.45;1.20;;;13.60;99.90;;;;;;5050961;28;20041;-57
2023/10/22 00:11:51;;;;;;;6.05;1.45;;;13.70;99.90;;;;;;5050865;28;20135;-55
2023/10/22 00:14:17;;;;;;;4.32;1.20;;;13.60;99.90;;;;;;5050980;28;20087;-56
2023/10/22 00:16:43;;;;;;;5.82;1.13;;;13.60;99.90;;;;;;5050724;28;20045;-56
2023/10/22 00:19:09;;;;;;;5.75;1.20;;;13.60;99.90;;;;;;5050136;28;20044;-56
2023/10/22 00:21:34;;;;;;;7.43;1.10;;;13.60;99.90;;;;;;5050503;28;20090;-56
2023/10/22 00:24:00;;;;;;;4.38;1.30;;;13.60;99.90;;;;;;5050848;28;20047;-54
2023/10/22 00:26:26;;;;;;;6.57;1.38;;;13.60;99.90;;;;;;5050549;28;20550;-55
2023/10/22 00:28:51;;;;;;;6.38;1.38;;;13.60;99.90;;;;;;5050765;28;20071;-56
2023/10/22 00:31:17;;;;;;;6.63;0.85;;;13.50;99.90;;;;;;5050353;28;20068;-56
2023/10/22 00:33:43;;;;;;;8.30;1.30;;;13.40;99.90;;;;;;5050434;28;20106;-54
2023/10/22 00:36:09;;;;;;;5.68;0.90;;;13.40;99.90;;;;;;5050483;28;20388;-56
2023/10/22 00:38:34;;;;;;;6.25;0.90;;;13.30;99.90;;;;;;5032220;28;20049;-57
2023/10/22 00:41:00;;;;;;;5.53;0.90;;;13.20;99.90;;;;;;5050175;28;20567;-56
2023/10/22 00:43:26;;;;;;;5.30;0.80;;;13.20;99.90;;;;;;5050130;28;20057;-56
2023/10/22 00:45:52;;;;;;;5.78;1.10;;;13.10;99.90;;;;;;5050336;28;20041;-56
2023/10/22 00:48:20;;;;;;;5.43;0.98;;;13.00;99.90;;;;;;5050303;28;20045;-53
2023/10/22 00:50:46;;;;;;;6.07;1.10;;;12.90;99.90;;;;;;5049319;28;20033;-53
2023/10/22 00:53:14;;;;;;;6.70;1.35;;;12.80;99.90;;;;;;5050517;28;20456;-55
2023/10/22 00:55:43;;;;;;;5.95;1.20;;;12.80;99.90;;;;;;5050698;28;20092;-56
2023/10/22 00:58:09;;;;;;;7.65;0.95;;;12.50;99.90;;;;;;5052093;28;20065;-56
2023/10/22 01:00:35;;;;;;;6.85;1.90;;;12.50;99.90;;;;;;5054096;28;20064;-55
2023/10/22 01:03:01;;;;;;;4.63;0.90;;;12.40;99.90;;;;;;5053792;28;20041;-57
2023/10/22 01:05:30;;;;;;;7.72;1.45;;;12.50;99.90;;;;;;5054281;28;20052;-56
2023/10/22 01:07:57;;;;;;;6.85;1.40;;;12.30;99.90;;;;;;5054002;28;20037;-54
2023/10/22 01:10:23;;;;;;;5.95;1.20;;;12.20;99.90;;;;;;5053928;28;20041;-53
2023/10/22 01:12:48;;;;;;;7.07;1.80;;;12.20;99.90;;;;;;5054330;28;20194;-55
2023/10/22 01:15:14;;;;;;;4.63;1.00;;;12.30;99.90;;;;;;5054166;28;20539;-55
2023/10/22 01:17:40;;;;;;;7.57;1.70;;;12.30;99.90;;;;;;5054119;28;20036;-57
2023/10/22 01:20:06;;;;;;;5.93;1.40;;;12.30;99.90;;;;;;5053756;28;20219;-56
2023/10/22 01:22:34;;;;;;;7.57;1.40;;;12.10;99.90;;;;;;5053779;28;20136;-56
2023/10/22 01:25:00;;;;;;;6.68;1.25;;;12.30;99.90;;;;;;5053833;28;20037;-57
2023/10/22 01:27:26;;;;;;;5.78;1.38;;;12.30;99.90;;;;;;5019354;28;20049;-55
2023/10/22 01:29:51;;;;;;;2.65;0.75;;;12.30;99.90;;;;;;5052846;28;20396;-55
2023/10/22 01:32:18;;;;;;;4.75;1.20;;;12.30;99.90;;;;;;5053485;28;20115;-55
2023/10/22 01:34:43;;;;;;;3.55;1.02;;;12.30;99.90;;;;;;5053187;28;20075;-55
2023/10/22 01:37:09;;;;;;;6.25;1.25;;;12.30;99.90;;;;;;5053830;28;20033;-57
2023/10/22 01:39:35;;;;;;;5.72;0.80;;;12.30;99.90;;;;;;5053212;28;20553;-57
2023/10/22 01:42:00;;;;;;;3.88;0.70;;;12.40;99.90;;;;;;5053613;28;20044;-56
2023/10/22 01:44:26;;;;;;;3.85;1.02;;;12.40;99.90;;;;;;5053694;28;20044;-57
2023/10/22 01:46:52;;;;;;;4.65;1.30;;;12.30;99.90;;;;;;5051925;28;20047;-56
2023/10/22 01:49:18;;;;;;;6.65;1.30;;;12.20;99.90;;;;;;5053493;28;20033;-56
2023/10/22 01:51:43;;;;;;;3.08;1.00;;;12.20;99.90;;;;;;5052667;28;20262;-56
2023/10/22 01:54:09;;;;;;;4.97;1.05;;;12.30;99.90;;;;;;5053279;28;20072;-53
2023/10/22 01:56:35;;;;;;;4.97;1.30;;;12.20;99.90;;;;;;5053138;28;20503;-57
2023/10/22 01:59:01;;;;;;;5.32;1.30;;;12.20;99.90;;;;;;5053210;28;20045;-57
2023/10/22 02:01:26;;;;;;;7.40;1.50;;;12.30;99.90;;;;;;5034935;28;20124;-55
2023/10/22 02:03:52;;;;;;;4.95;1.20;;;12.20;99.90;;;;;;5052706;28;20054;-56
2023/10/22 02:06:18;;;;;;;5.00;1.45;;;12.20;99.90;;;;;;5053312;28;20071;-57
2023/10/22 02:08:46;;;;;;;5.43;1.20;;;12.20;99.90;;;;;;5052687;28;20033;-59
2023/10/22 02:11:11;;;;;;;12.30;1.50;;;12.30;99.90;;;;;;5053105;28;20032;-56
2023/10/22 02:13:37;;;;;;;7.28;1.10;;;12.50;99.90;;;;;;5052816;28;20048;-52
2023/10/22 02:16:03;;;;;;;3.25;1.13;;;12.30;99.90;;;;;;5034852;28;20056;-56
2023/10/22 02:18:29;;;;;;;6.47;0.80;;;12.30;99.90;;;;;;5052364;28;20040;-55
2023/10/22 02:20:57;;;;;;;6.60;1.25;;;12.50;99.90;;;;;;5052851;28;20036;-55
2023/10/22 02:23:24;;;;;;;8.75;2.22;;;12.50;99.90;;;;;;5052885;28;20167;-56
2023/10/22 02:25:50;;;;;;;7.20;1.50;;;12.30;99.90;;;;;;5052511;28;20043;-56
2023/10/22 02:28:17;;;;;;;3.78;1.17;;;12.30;99.90;;;;;;5052432;28;20031;-56
2023/10/22 02:30:44;;;;;;;3.90;1.10;;;12.40;99.90;;;;;;5052737;28;20037;-55
2023/10/22 02:33:10;;;;;;;6.43;1.67;;;12.40;99.90;;;;;;5052323;28;20044;-57
2023/10/22 02:35:43;;;;;;;3.38;0.90;;;12.60;99.90;;;;;;5052632;28;20467;-57
2023/10/22 02:38:14;;;;;;;5.82;1.05;;;12.60;99.90;;;;;;5053138;28;20415;-57
2023/10/22 02:40:40;;;;;;;5.80;1.30;;;12.50;99.90;;;;;;5052237;28;20047;-56
2023/10/22 02:43:07;;;;;;;3.88;1.20;;;12.50;99.90;;;;;;5052204;28;20087;-56
2023/10/22 02:45:33;;;;;;;4.38;1.15;;;12.70;99.90;;;;;;5052439;28;20040;-57
2023/10/22 02:47:59;;;;;;;2.15;1.00;;;12.60;99.90;;;;;;5052298;28;20044;-55
2023/10/22 02:50:25;;;;;;;6.20;1.20;;;12.60;99.90;;;;;;5051929;28;20179;-56
2023/10/22 02:52:51;;;;;;;3.30;1.13;;;12.70;99.90;;;;;;5034250;28;20037;-57
2023/10/22 02:55:17;;;;;;;4.00;1.30;;;12.60;99.90;;;;;;5051930;28;20047;-55
2023/10/22 02:57:44;;;;;;;4.80;1.42;;;12.80;99.90;;;;;;5052057;28;20514;-56
2023/10/22 03:00:10;;;;;;;3.33;0.90;;;12.80;99.90;;;;;;5052239;28;20044;-57
2023/10/22 03:02:42;;;;;;;5.03;1.20;;;12.70;99.90;;;;;;5052204;28;20044;-56
2023/10/22 03:05:08;;;;;;;5.00;1.35;;;12.80;99.90;;;;;;5051678;28;20045;-57
2023/10/22 03:07:34;;;;;;;3.70;1.30;;;12.70;99.90;;;;;;5051963;28;20119;-57
2023/10/22 03:10:00;;;;;;;2.75;1.08;;;12.70;99.90;;;;;;5051969;28;20120;-56
2023/10/22 03:12:26;;;;;;;2.83;1.13;;;12.80;99.90;;;;;;5052048;28;20514;-57
2023/10/22 03:14:52;;;;;;;5.35;1.60;;;12.50;99.90;;;;;;5051523;28;20104;-56
2023/10/22 03:17:19;;;;;;;4.43;1.10;;;12.70;99.90;;;;;;5051662;28;20045;-57
2023/10/22 03:19:45;;;;;;;5.30;1.33;;;12.60;99.90;;;;;;5051165;28;20044;-56
2023/10/22 03:22:10;;;;;;;6.25;1.95;;;12.40;99.90;;;;;;5050999;28;20037;-55
2023/10/22 03:24:36;;;;;;;5.45;1.60;;;12.70;99.90;;;;;;5051676;28;20040;-56
2023/10/22 03:27:05;;;;;;;11.50;1.50;;;12.70;99.90;;;;;;5051148;28;20507;-57
2023/10/22 03:29:32;;;;;;;3.78;1.30;;;12.50;99.90;;;;;;5051369;28;20029;-56
2023/10/22 03:31:58;;;;;;;4.95;1.52;;;12.30;99.90;;;;;;5051273;28;20040;-56
2023/10/22 03:34:26;;;;;;;4.22;1.98;;;12.30;99.90;;;;;;5051308;28;20476;-56
2023/10/22 03:36:52;;;;;;;4.35;1.50;;;12.60;99.90;;;;;;5051484;28;20037;-56
2023/10/22 03:39:18;;;;;;;4.35;1.23;;;12.30;99.90;;;;;;5033400;28;20047;-55
2023/10/22 03:41:44;;;;;;;4.32;1.55;;;12.20;99.90;;;;;;5051309;28;20433;-55
2023/10/22 03:44:10;;;;;;;4.85;1.58;;;12.30;99.90;;;;;;5032611;28;20088;-56
2023/10/22 03:46:35;;;;;;;3.30;1.30;;;12.50;99.90;;;;;;5051269;28;20122;-55
2023/10/22 03:49:01;;;;;;;4.10;1.90;;;12.40;99.90;;;;;;5050695;28;20526;-55
2023/10/22 03:51:27;;;;;;;4.05;2.10;;;12.50;99.90;;;;;;5033161;28;20036;-58
2023/10/22 03:53:53;;;;;;;4.15;1.60;;;12.50;99.90;;;;;;5051113;28;20040;-57
2023/10/22 03:56:20;;;;;;;5.38;1.80;;;12.30;99.90;;;;;;5033065;28;20048;-58
2023/10/22 03:58:46;;;;;;;3.25;1.60;;;12.60;99.90;;;;;;5050993;28;20072;-57
2023/10/22 04:01:12;;;;;;;2.90;1.90;;;12.40;99.90;;;;;;5050428;28;20079;-57
2023/10/22 04:03:37;;;;;;;2.33;1.17;;;12.70;99.90;;;;;;5032915;28;20040;-57
2023/10/22 04:06:03;;;;;;;4.28;1.70;;;12.40;99.90;;;;;;5050939;28;20068;-57
2023/10/22 04:08:29;;;;;;;3.97;1.20;;;12.50;99.90;;;;;;5050633;28;20041;-55
2023/10/22 04:10:55;;;;;;;2.78;1.13;;;12.40;99.90;;;;;;5050872;28;20048;-56
2023/10/22 04:13:22;;;;;;;2.70;1.08;;;12.40;99.90;;;;;;5050650;28;20037;-56
2023/10/22 04:15:48;;;;;;;2.85;1.13;;;12.70;99.90;;;;;;5050540;28;20052;-55
2023/10/22 04:18:16;;;;;;;2.83;1.25;;;12.50;99.90;;;;;;5050582;28;20036;-56
2023/10/22 04:20:42;;;;;;;2.22;0.98;;;12.80;99.90;;;;;;5050871;28;20440;-58
2023/10/22 04:23:08;;;;;;;2.35;0.93;;;12.80;99.90;;;;;;5031999;28;20044;-58
2023/10/22 04:25:42;;;;;;;1.40;0.80;;;12.60;99.90;;;;;;5050764;28;20339;-55
2023/10/22 04:28:08;;;;;;;;;;;12.70;99.90;;;;;;5051172;28;20072;-57
2023/10/22 04:30:38;;;;;;;1.33;0.77;;;12.90;99.90;;;;;;5050790;28;20343;-58
2023/10/22 04:33:05;;;;;;;2.50;0.85;;;12.60;99.90;;;;;;5052390;28;20036;-55
2023/10/22 04:35:34;;;;;;;2.10;1.00;;;12.80;99.90;;;;;;5054247;28;20040;-56
2023/10/22 04:38:00;;;;;;;3.33;1.38;;;12.60;99.90;;;;;;5054865;28;20033;-57
2023/10/22 04:40:31;;;;;;;2.78;1.20;;;12.80;99.90;;;;;;5054830;28;20427;-57
2023/10/22 04:42:57;;;;;;;2.17;1.00;;;12.50;99.90;;;;;;5054182;28;20045;-57
2023/10/22 04:45:23;;;;;;;2.95;1.15;;;12.60;99.90;;;;;;5019830;28;20049;-58
2023/10/22 04:47:49;;;;;;;3.80;1.20;;;12.50;99.90;;;;;;5036484;28;20171;-58
2023/10/22 04:50:14;;;;;;;2.22;1.40;;;12.50;99.90;;;;;;5053636;28;20115;-58
2023/10/22 04:52:40;;;;;;;2.03;1.27;;;12.60;99.90;;;;;;5054098;28;20041;-56
2023/10/22 04:55:06;;;;;;;4.70;1.73;;;12.60;99.90;;;;;;5036964;28;20056;-57
2023/10/22 04:57:32;;;;;;;2.50;1.60;;;13.00;99.90;;;;;;5036262;28;20121;-57
2023/10/22 04:59:57;;;;;;;2.92;2.03;;;12.60;99.90;;;;;;5036584;28;20079;-55
2023/10/22 05:02:23;;;;;;;3.00;1.50;;;13.10;99.90;;;;;;5054270;28;20033;-56
2023/10/22 05:04:51;;;;;;;1.90;0.80;;;12.70;99.90;;;;;;5054146;28;20039;-57
2023/10/22 05:07:17;;;;;;;5.10;1.00;;;13.10;99.90;;;;;;5053890;28;20403;-55
2023/10/22 05:09:43;;;;;;;3.97;1.05;;;13.10;99.90;;;;;;5036237;28;20043;-57
2023/10/22 05:12:09;;;;;;;4.18;1.05;;;13.20;99.90;;;;;;5054263;28;20045;-55
2023/10/22 05:14:34;;;;;;;4.82;1.20;;;13.10;99.90;;;;;;5036237;28;20403;-57
2023/10/22 05:17:00;;;;;;;6.45;1.10;;;12.60;99.90;;;;;;5019618;28;20663;-57
2023/10/22 05:19:26;;;;;;;7.18;1.60;;;13.00;99.90;;;;;;5053767;28;20033;-57
2023/10/22 05:21:52;;;;;;;5.47;1.10;;;12.50;99.90;;;;;;5053790;28;20132;-56
2023/10/22 05:24:18;;;;;;;9.40;1.63;;;12.80;99.90;;;;;;5053944;28;20119;-55
2023/10/22 05:26:44;;;;;;;6.13;2.08;;;12.70;99.90;;;;;;5053450;28;20123;-54
2023/10/22 05:29:09;;;;;;;5.72;1.30;;;12.80;99.90;;;;;;5053372;28;20046;-54
2023/10/22 05:31:35;;;;;;;6.57;1.25;;;12.40;99.90;;;;;;5050660;28;20186;-57
2023/10/22 05:34:01;;;;;;;7.13;1.67;;;12.30;99.90;;;;;;5053638;28;20090;-56
2023/10/22 05:36:27;;;;;;;5.93;1.50;;;12.30;99.90;;;;;;5053458;28;20504;-55
2023/10/22 05:38:53;;;;;;;8.65;2.30;;;11.90;99.90;;;;;;5052385;28;20036;-54
2023/10/22 05:41:25;;;;;;;5.25;2.08;;;11.70;99.90;;;;;;5035084;28;20049;-57
2023/10/22 05:43:56;;;;;;;8.10;2.30;;;11.70;99.90;;;;;;5052769;28;20041;-56
2023/10/22 05:46:23;;;;;;;10.00;3.15;;;11.60;99.90;;;;;;5053339;28;20033;-58
2023/10/22 05:48:49;;;;;;;8.20;3.00;;;11.70;99.90;;;;;;5052789;28;20116;-54
2023/10/22 05:51:14;;;;;;;10.80;3.95;;;11.90;99.90;;;;;;5053127;28;20540;-54
2023/10/22 05:53:40;;;;;;;9.88;3.83;;;11.60;99.90;;;;;;5053099;28;20041;-56
2023/10/22 05:56:06;;;;;;;12.25;5.85;;;12.10;99.90;;;;;;5053498;28;20083;-54
2023/10/22 05:58:31;;;;;;;11.40;4.60;;;11.60;99.90;;;;;;5053335;28;20491;-56
2023/10/22 06:00:57;;;;;;;10.48;4.88;;;11.90;99.90;;;;;;5053285;28;20037;-53
2023/10/22 06:03:23;;;;;;;9.60;4.95;;;11.80;99.90;;;;;;5052802;28;20531;-55
2023/10/22 06:05:49;;;;;;;10.73;4.45;;;11.60;99.90;;;;;;5035012;28;20118;-55
2023/10/22 06:08:15;;;;;;;9.82;4.13;;;11.80;99.90;;;;;;5052837;28;20550;-56
2023/10/22 06:10:41;;;;;;;7.85;2.80;;;12.10;99.90;;;;;;5052526;28;20119;-55
2023/10/22 06:13:08;;;;;;;10.57;4.07;;;11.80;99.90;;;;;;5034936;28;20388;-58
2023/10/22 06:15:42;;;;;;;7.20;2.20;;;11.80;99.90;;;;;;5052673;28;20045;-55
2023/10/22 06:18:08;;;;;;;6.45;2.85;;;11.80;99.90;;;;;;5052796;28;20056;-52
2023/10/22 06:20:34;;;;;;;6.85;2.33;;;11.80;99.90;;;;;;5052818;28;20033;-54
2023/10/22 06:23:01;;;;;;;8.63;2.97;;;11.80;99.90;;;;;;5052473;28;20044;-56
2023/10/22 06:25:27;;;;;;;6.55;2.85;;;11.70;99.90;;;;;;5052838;28;20365;-56
2023/10/22 06:27:55;;;;;;;6.03;2.10;;;11.90;99.90;;;;;;5052415;28;20043;-57
2023/10/22 06:30:25;;;;;;;8.55;2.65;;;11.90;99.90;;;;;;5052647;28;20484;-55
2023/10/22 06:32:52;;;;;;;6.32;1.98;;;11.70;99.90;;;;;;5034566;28;20068;-55
2023/10/22 06:35:22;;;;;;;8.02;2.35;;;11.70;99.90;;;;;;5052459;28;20033;-52
2023/10/22 06:37:51;;;;;;;5.53;2.40;;;11.60;99.90;;;;;;5052386;28;20040;-57
2023/10/22 06:40:17;;;;;;;10.27;2.60;;;11.70;99.90;;;;;;5052572;28;20482;-56
2023/10/22 06:42:43;;;;;;;8.05;3.42;;;11.70;99.90;;;;;;5051931;28;20080;-57
2023/10/22 06:45:09;;;;;;;7.80;2.40;;;11.90;99.90;;;;;;5052579;28;20037;-56
2023/10/22 06:47:39;;;;;;;5.95;2.40;;;11.90;99.90;;;;;;5052053;28;20035;-54
2023/10/22 06:50:06;;;;;;;8.63;3.75;;;11.90;99.90;;;;;;5052483;28;20041;-55
2023/10/22 06:52:32;;;;;;;10.90;2.70;;;11.90;99.90;;;;;;5051776;28;20044;-56
2023/10/22 06:54:58;;;;;;;6.75;3.47;;;11.70;99.90;;;;;;5033735;28;20045;-54
2023/10/22 06:57:23;;;;;;;10.95;3.20;;;11.70;99.90;;;;;;5051703;28;20106;-55
2023/10/22 06:59:52;;;;;;;6.80;4.28;;;11.70;99.90;;;;;;5033954;28;20059;-56
2023/10/22 07:02:18;;;;;;;6.03;2.80;;;11.90;99.90;;;;;;5052276;28;20416;-57
2023/10/22 07:04:44;;;;;;;7.22;2.85;;;11.70;99.90;;;;;;5051737;28;20032;-55
2023/10/22 07:07:10;;;;;;;8.73;2.85;;;11.70;99.90;;;;;;5052265;28;20488;-55
2023/10/22 07:09:37;;;;;;;10.65;2.97;;;11.70;99.90;;;;;;5034060;28;20075;-55
2023/10/22 07:12:03;;;;;;;8.50;2.80;;;12.00;99.90;;;;;;5052011;28;20373;-55
2023/10/22 07:14:28;;;;;;;10.55;3.45;;;11.90;99.90;;;;;;5051655;28;20036;-57
2023/10/22 07:16:54;;;;;;;11.80;2.78;;;11.70;99.90;;;;;;5033881;28;20041;-55
2023/10/22 07:19:20;;;;;;;11.20;3.15;;;12.00;99.90;;;;;;5051428;28;20040;-55
2023/10/22 07:21:45;;;;;;;9.55;2.80;;;11.80;99.90;;;;;;5051561;28;20116;-55
2023/10/22 07:24:11;;;;;;;7.53;3.80;;;11.80;99.90;;;;;;5051948;28;20040;-57
2023/10/22 07:26:38;;;;;;;7.28;3.40;;;12.00;99.90;;;;;;5051806;28;20033;-57
2023/10/22 07:29:03;;;;;;;12.13;3.60;;;11.80;99.90;;;;;;5051402;28;20037;-54
2023/10/22 07:31:29;;;;;;;8.05;4.40;;;12.00;99.90;;;;;;5051667;28;20047;-57
2023/10/22 07:33:55;;;;;;;7.55;4.20;;;11.90;99.90;;;;;;5050844;28;20081;-56
2023/10/22 07:36:20;;;;;;;11.40;3.70;;;12.00;99.90;;;;;;5051115;28;20051;-57
2023/10/22 07:38:51;;;;;;;7.95;3.92;;;12.10;99.90;;;;;;5032920;28;20061;-56
2023/10/22 07:41:17;;;;;;;9.98;4.40;;;12.10;99.90;;;;;;5033310;28;20025;-56
2023/10/22 07:43:44;;;;;;;17.30;5.07;;;12.00;99.90;;;;;;5051068;28;20496;-55
2023/10/22 07:46:10;;;;;;;9.95;6.05;;;12.20;99.90;;;;;;5042595;28;20041;-55
2023/10/22 07:48:37;;;;;;;14.60;5.15;;;12.10;99.90;;;;;;5020921;28;20039;-57
2023/10/22 07:51:15;;;;;;;13.65;5.35;;;12.00;99.90;;;;;;5021976;28;20087;-53
2023/10/22 07:53:41;;;;;;;10.93;5.90;;;12.00;99.90;;;;;;5040276;28;20056;-56
2023/10/22 07:56:08;;;;;;;12.90;5.80;;;12.20;99.90;;;;;;5021965;28;20552;-57
2023/10/22 07:58:35;;;;;;;9.27;4.00;;;12.00;99.90;;;;;;5038616;28;20041;-55
2023/10/22 08:01:00;;;;;;;13.88;4.68;;;12.00;99.90;;;;;;5039605;28;20094;-55
2023/10/22 08:03:30;;;;;;;10.40;5.60;;;12.00;99.90;;;;;;5039996;28;20041;-58
2023/10/22 08:06:02;;;;;;;8.07;5.05;;;12.30;99.90;;;;;;5038887;28;20045;-55
2023/10/22 08:08:28;;;;;;;8.20;4.50;;;12.30;99.90;;;;;;5039183;28;20037;-53
2023/10/22 08:10:58;;;;;;;10.38;4.32;;;12.10;99.90;;;;;;5039622;28;20074;-55
2023/10/22 08:13:25;;;;;;;11.40;4.20;;;12.40;99.90;;;;;;5039179;28;20033;-56
2023/10/22 08:15:51;;;;;;;8.65;5.47;;;12.30;99.90;;;;;;5039400;28;20033;-56
2023/10/22 08:18:16;;;;;;;12.98;5.45;;;12.70;99.90;;;;;;5039101;28;20430;-56
2023/10/22 08:20:42;;;;;;;10.43;3.85;;;12.60;99.90;;;;;;5022242;28;20247;-57
2023/10/22 08:23:08;;;;;;;8.10;5.22;;;12.50;99.90;;;;;;5039327;28;20492;-56
2023/10/22 08:25:34;;;;;;;8.23;4.15;;;12.70;99.90;;;;;;5040438;28;20111;-58
2023/10/22 08:28:00;;;;;;;8.38;3.55;;;12.50;99.90;;;;;;5039608;28;20076;-56
2023/10/22 08:30:26;;;;;;;9.13;4.57;;;12.70;99.90;;;;;;5039604;28;20420;-57
2023/10/22 08:32:52;;;;;;;7.65;3.78;;;12.40;99.90;;;;;;5023257;28;20040;-57
2023/10/22 08:35:17;;;;;;;9.13;4.90;;;12.70;99.90;;;;;;5039007;28;20400;-58
2023/10/22 08:37:44;;;;;;;8.40;3.45;;;12.40;99.90;;;;;;5039556;28;20033;-57
2023/10/22 08:40:11;;;;;;;9.00;4.68;;;12.40;99.90;;;;;;5039644;28;20128;-58
2023/10/22 08:42:37;;;;;;;9.52;4.70;;;12.30;99.90;;;;;;5039637;28;20196;-57
2023/10/22 08:45:04;;;;;;;10.00;4.60;;;12.70;99.90;;;;;;5039318;28;20064;-57
2023/10/22 08:47:30;;;;;;;9.55;4.78;;;12.60;99.90;;;;;;5039586;28;20625;-56
2023/10/22 08:49:57;;;;;;;8.35;4.30;;;12.40;99.90;;;;;;5039946;28;20058;-55
2023/10/22 08:52:23;;;;;;;10.45;3.83;;;12.80;99.90;;;;;;5039836;28;20049;-57
2023/10/22 08:54:49;;;;;;;8.50;3.83;;;12.80;99.90;;;;;;5039267;28;20048;-56
2023/10/22 08:57:16;;;;;;;9.32;4.80;;;12.80;99.90;;;;;;5013480;28;20033;-57
2023/10/22 08:59:43;;;;;;;9.25;3.83;;;12.90;99.90;;;;;;5037554;28;20037;-56
2023/10/22 09:02:12;;;;;;;10.75;4.32;;;12.90;99.90;;;;;;5037029;28;20037;-55
2023/10/22 09:04:39;;;;;;;11.13;5.45;;;13.10;99.90;;;;;;5035854;28;20075;-56
2023/10/22 09:07:05;;;;;;;8.48;4.60;;;13.00;99.90;;;;;;5042906;28;20111;-54
2023/10/22 09:09:38;;;;;;;11.48;5.05;;;13.00;99.90;;;;;;5047571;28;21369;-56
2023/10/22 09:12:10;;;;;;;9.20;5.60;;;13.30;99.90;;;;;;5046017;28;20093;-57
2023/10/22 09:14:36;;;;;;;10.75;4.93;;;13.30;99.90;;;;;;5048630;28;20113;-56
2023/10/22 09:17:19;;;;;;;7.00;3.90;;;13.50;99.90;;;;;;5047533;28;20092;-56
2023/10/22 09:19:49;;;;;;;8.85;5.00;;;13.50;99.90;;;;;;5052579;28;20045;-55
2023/10/22 09:22:27;;;;;;;7.43;3.97;;;13.60;99.90;;;;;;5052247;28;20044;-57
2023/10/22 09:24:55;;;;;;;10.93;4.45;;;13.60;99.90;;;;;;5051834;28;20468;-56
2023/10/22 09:27:32;;;;;;;7.70;5.40;;;13.60;99.90;;;;;;5053243;28;20059;-57
2023/10/22 09:30:00;;;;;;;10.40;5.00;;;13.60;99.90;;;;;;5053256;28;20467;-57
2023/10/22 09:32:26;;;;;;;9.55;4.78;;;13.70;99.90;;;;;;5053188;28;20052;-57
2023/10/22 09:34:52;;;;;;;11.68;4.88;;;13.70;99.90;;;;;;5052294;28;20480;-58
2023/10/22 09:37:17;;;;;;;8.27;4.63;;;13.90;99.90;;;;;;5052103;28;20051;-56
2023/10/22 09:39:45;;;;;;;8.10;4.45;;;13.80;99.90;;;;;;5049718;28;20041;-55
2023/10/22 09:42:12;;;;;;;8.68;4.00;;;13.90;99.90;;;;;;5032852;28;20037;-58
2023/10/22 09:44:40;;;;;;;9.38;3.90;;;13.80;99.90;;;;;;5051617;28;20096;-58
2023/10/22 09:47:07;;;;;;;11.85;4.22;;;13.90;99.90;;;;;;5052084;28;20095;-56
2023/10/22 09:49:33;;;;;;;8.68;4.93;;;13.80;99.90;;;;;;5052071;28;20037;-58
2023/10/22 09:52:01;;;;;;;9.95;5.00;;;13.90;99.90;;;;;;5052880;28;20450;-55
2023/10/22 09:54:37;;;;;;;9.90;4.35;;;13.90;99.90;;;;;;5053261;28;20045;-58
2023/10/22 09:57:28;;;;;;;10.63;5.10;;;13.90;99.90;;;;;;5035820;28;20396;-56
2023/10/22 10:00:01;;;;;;;8.43;4.20;;;13.90;99.90;;;;;;5052403;28;20059;-56
2023/10/22 10:02:28;;;;;;;7.28;5.28;;;13.80;99.90;;;;;;5034649;28;20095;-56
2023/10/22 10:04:54;;;;;;;9.43;4.35;;;13.80;99.90;;;;;;5052849;28;20481;-55
2023/10/22 10:07:23;;;;;;;7.65;4.22;;;13.70;99.90;;;;;;5053261;28;20461;-56
2023/10/22 10:09:49;;;;;;;7.68;4.72;;;13.70;99.90;;;;;;5052806;28;20069;-57
2023/10/22 10:12:16;;;;;;;10.90;3.92;;;13.70;99.90;;;;;;5052397;28;20484;-56
2023/10/22 10:14:45;;;;;;;11.27;3.53;;;13.90;99.90;;;;;;5051343;28;20048;-58
2023/10/22 10:17:12;;;;;;;5.97;3.80;;;14.00;99.90;;;;;;5052789;28;20124;-57
2023/10/22 10:19:37;;;;;;;9.40;3.25;;;14.10;99.90;;;;;;5034873;28;20041;-57
2023/10/22 10:22:04;;;;;;;8.63;3.08;;;14.10;99.90;;;;;;5050728;28;20033;-56
2023/10/22 10:24:31;;;;;;;8.30;3.03;;;14.10;99.90;;;;;;5046992;28;20033;-57
2023/10/22 10:26:57;;;;;;;7.95;3.22;;;14.00;99.90;;;;;;5049715;28;20036;-57
2023/10/22 10:29:31;;;;;;;10.23;2.70;;;14.00;99.90;;;;;;5050535;28;20041;-57
2023/10/22 10:32:16;;;;;;;7.85;3.28;;;14.00;99.90;;;;;;5049459;28;20387;-57
2023/10/22 10:34:48;;;;;;;7.65;2.67;;;14.00;99.90;;;;;;5048423;28;20433;-55
2023/10/22 10:37:20;;;;;;;7.47;2.65;;;14.00;99.90;;;;;;5050396;28;20041;-58
2023/10/22 10:39:51;;;;;;;6.50;2.42;;;14.10;99.90;;;;;;5049430;28;20044;-55
2023/10/22 10:42:29;;;;;;;7.70;2.58;;;14.10;99.90;;;;;;5046567;28;20499;-59
2023/10/22 10:44:57;;;;;;;4.13;1.88;;;14.10;99.90;;;;;;5049604;28;20049;-56
2023/10/22 10:47:31;;;;;;;4.07;2.00;;;13.90;99.90;;;;;;5049765;28;20041;-57
2023/10/22 10:50:05;;;;;;;9.32;2.20;;;14.00;99.90;;;;;;5051295;28;20380;-56
2023/10/22 10:52:34;;;;;;;8.80;2.10;;;14.10;99.90;;;;;;5050191;28;20056;-55
2023/10/22 10:55:08;;;;;;;5.70;1.98;;;14.00;99.90;;;;;;5031601;28;20040;-57
2023/10/22 10:57:39;;;;;;;5.70;1.60;;;14.00;99.90;;;;;;5031283;28;20070;-58
2023/10/22 11:00:09;;;;;;;5.80;1.60;;;13.80;99.90;;;;;;5049368;28;20546;-57
2023/10/22 11:02:45;;;;;;;4.75;1.15;;;13.70;99.90;;;;;;5048163;28;20135;-56
2023/10/22 11:05:12;;;;;;;5.53;1.63;;;13.70;99.90;;;;;;5046522;28;20090;-56
2023/10/22 11:07:38;;;;;;;6.03;1.50;;;13.60;99.90;;;;;;5048825;28;20126;-58
2023/10/22 11:10:14;;;;;;;3.85;1.35;;;13.70;99.90;;;;;;5049311;28;20029;-58
2023/10/22 11:12:41;;;;;;;6.47;1.40;;;13.70;99.90;;;;;;5049077;28;20049;-56
2023/10/22 11:15:09;;;;;;;5.63;1.45;;;13.70;99.90;;;;;;5049440;28;20484;-63
2023/10/22 11:17:35;;;;;;;3.83;1.27;;;13.70;99.90;;;;;;5049407;28;20041;-56
2023/10/22 11:20:01;;;;;;;5.38;1.33;;;13.60;99.90;;;;;;5049368;28;20045;-54
2023/10/22 11:22:27;;;;;;;4.70;1.00;;;13.60;99.90;;;;;;5048922;28;20033;-57
2023/10/22 11:24:55;;;;;;;5.72;1.10;;;13.50;99.90;;;;;;5050201;28;20392;-58
2023/10/22 11:27:22;;;;;;;6.70;1.60;;;13.50;99.90;;;;;;5049939;28;20499;-56
2023/10/22 11:29:49;;;;;;;5.55;1.52;;;13.50;99.90;;;;;;5032230;28;20437;-57
2023/10/22 11:32:19;;;;;;;4.20;1.45;;;13.50;99.90;;;;;;5048584;28;20052;-57
2023/10/22 11:34:59;;;;;;;7.80;1.50;;;13.60;99.90;;;;;;5049011;28;20386;-55
2023/10/22 11:37:36;;;;;;;5.40;1.70;;;13.60;99.90;;;;;;5049955;28;20049;-54
2023/10/22 11:40:34;;;;;;;4.70;1.50;;;13.60;99.90;;;;;;5031373;28;20041;-58
2023/10/22 11:43:13;;;;;;;4.80;1.25;;;13.60;99.90;;;;;;5046428;28;20048;-58
2023/10/22 11:45:52;;;;;;;4.78;0.90;;;13.60;99.90;;;;;;5031437;28;20056;-57
2023/10/22 11:48:24;;;;;;;5.30;1.10;;;13.80;99.90;;;;;;5030191;28;20041;-58
2023/10/22 11:50:54;;;;;;;3.38;0.93;;;14.30;99.90;;;;;;5048750;28;20071;-57
2023/10/22 11:53:20;;;;;;;4.93;1.00;;;14.60;99.90;;;;;;5046612;28;20036;-56
2023/10/22 11:55:46;;;;;;;5.07;1.13;;;14.80;99.90;;;;;;5030657;28;20037;-57
2023/10/22 11:58:20;;;;;;;2.67;0.75;;;14.70;99.90;;;;;;5030457;28;20079;-58
2023/10/22 12:00:46;;;;;;;3.47;1.20;;;14.60;99.90;;;;;;5030807;28;20036;-58
2023/10/22 12:03:12;;;;;;;4.30;1.15;;;14.60;99.90;;;;;;5048078;28;20303;-57
2023/10/22 12:05:37;;;;;;;4.68;1.08;;;14.50;99.90;;;;;;5049473;28;20079;-58
2023/10/22 12:08:03;;;;;;;3.53;1.00;;;14.40;99.90;;;;;;5050665;28;20064;-57
2023/10/22 12:10:29;;;;;;;3.72;1.10;;;14.20;99.90;;;;;;5050846;28;20043;-57
2023/10/22 12:12:55;;;;;;;3.97;1.27;;;14.00;99.90;;;;;;5032823;28;20036;-56
2023/10/22 12:15:21;;;;;;;4.43;1.27;;;14.00;99.90;;;;;;5050683;28;20123;-56
2023/10/22 12:17:46;;;;;;;5.45;1.67;;;13.80;99.90;;;;;;5050842;28;20119;-58
2023/10/22 12:20:12;;;;;;;4.05;1.30;;;13.80;99.90;;;;;;5051162;28;20037;-56
2023/10/22 12:22:38;;;;;;;3.45;1.20;;;13.80;99.90;;;;;;5050362;28;20033;-58
2023/10/22 12:25:04;;;;;;;3.35;1.30;;;13.70;99.90;;;;;;5050652;28;20346;-57
2023/10/22 12:27:32;;;;;;;5.50;1.27;;;13.70;99.90;;;;;;5050196;28;20052;-57
2023/10/22 12:29:59;;;;;;;3.50;1.17;;;13.70;99.90;;;;;;5050608;28;20081;-59
2023/10/22 12:32:24;;;;;;;3.88;1.25;;;13.70;99.90;;;;;;5050756;28;20045;-58
2023/10/22 12:34:50;;;;;;;2.55;1.00;;;13.80;99.90;;;;;;5050279;28;20064;-58
2023/10/22 12:37:16;;;;;;;6.80;1.23;;;13.90;99.90;;;;;;5050689;28;20408;-58
2023/10/22 12:39:42;;;;;;;3.55;1.52;;;14.20;99.90;;;;;;5050801;28;20047;-58
2023/10/22 12:42:08;;;;;;;4.00;0.85;;;14.60;99.90;;;;;;5050080;28;20044;-58
2023/10/22 12:44:34;;;;;;;3.05;0.90;;;14.90;99.90;;;;;;5050056;28;20438;-57
2023/10/22 12:47:00;;;;;;;5.07;0.90;;;15.00;99.90;;;;;;5050319;28;20037;-59